sensor_id;sensor_type;location;lat;lon;timestamp;P1;durP1;ratioP1;P2;durP2;ratioP2
49578;SDS011;35483;50.828;3.228;2024-02-21T00:00:54;4.53;;;2.85;;
49578;SDS011;35483;50.828;3.228;2024-02-21T00:03:22;3.85;;;3.00;;
49578;SDS011;35483;50.828;3.228;2024-02-21T00:05:48;5.05;;;3.28;;
49578;SDS011;35483;50.828;3.228;2024-02-21T00:08:15;4.32;;;3.28;;
49578;SDS011;35483;50.828;3.228;2024-02-21T00:10:42;3.78;;;3.30;;
49578;SDS011;35483;50.828;3.228;2024-02-21T00:13:09;4.05;;;3.03;;
49578;SDS011;35483;50.828;3.228;2024-02-21T00:18:07;4.30;;;3.45;;
49578;SDS011;35483;50.828;3.228;2024-02-21T00:20:35;3.88;;;3.20;;
49578;SDS011;35483;50.828;3.228;2024-02-21T00:23:02;4.55;;;3.60;;
49578;SDS011;35483;50.828;3.228;2024-02-21T00:25:28;4.63;;;3.30;;
49578;SDS011;35483;50.828;3.228;2024-02-21T00:27:54;3.65;;;3.20;;
49578;SDS011;35483;50.828;3.228;2024-02-21T00:30:21;3.05;;;2.75;;
49578;SDS011;35483;50.828;3.228;2024-02-21T00:32:48;4.18;;;3.67;;
49578;SDS011;35483;50.828;3.228;2024-02-21T00:35:15;4.78;;;4.15;;
49578;SDS011;35483;50.828;3.228;2024-02-21T00:37:41;7.72;;;4.30;;
49578;SDS011;35483;50.828;3.228;2024-02-21T00:40:08;6.25;;;4.88;;
49578;SDS011;35483;50.828;3.228;2024-02-21T00:42:35;7.05;;;4.78;;
49578;SDS011;35483;50.828;3.228;2024-02-21T00:45:02;8.95;;;5.50;;
49578;SDS011;35483;50.828;3.228;2024-02-21T00:47:34;9.02;;;5.75;;
49578;SDS011;35483;50.828;3.228;2024-02-21T00:50:00;8.80;;;5.32;;
49578;SDS011;35483;50.828;3.228;2024-02-21T00:52:26;8.05;;;6.13;;
49578;SDS011;35483;50.828;3.228;2024-02-21T00:54:53;9.20;;;6.13;;
49578;SDS011;35483;50.828;3.228;2024-02-21T00:57:20;8.60;;;5.95;;
49578;SDS011;35483;50.828;3.228;2024-02-21T00:59:48;8.50;;;6.40;;
49578;SDS011;35483;50.828;3.228;2024-02-21T01:02:15;11.07;;;6.35;;
49578;SDS011;35483;50.828;3.228;2024-02-21T01:04:41;13.30;;;7.95;;
49578;SDS011;35483;50.828;3.228;2024-02-21T01:07:08;13.05;;;7.18;;
49578;SDS011;35483;50.828;3.228;2024-02-21T01:12:03;12.13;;;7.70;;
49578;SDS011;35483;50.828;3.228;2024-02-21T01:14:30;11.57;;;7.20;;
49578;SDS011;35483;50.828;3.228;2024-02-21T01:16:57;11.65;;;7.53;;
49578;SDS011;35483;50.828;3.228;2024-02-21T01:19:22;12.55;;;7.18;;
49578;SDS011;35483;50.828;3.228;2024-02-21T01:21:50;9.85;;;6.72;;
49578;SDS011;35483;50.828;3.228;2024-02-21T01:24:17;17.13;;;7.25;;
49578;SDS011;35483;50.828;3.228;2024-02-21T01:26:43;11.63;;;6.40;;
49578;SDS011;35483;50.828;3.228;2024-02-21T01:29:08;12.90;;;7.25;;
49578;SDS011;35483;50.828;3.228;2024-02-21T01:31:35;16.17;;;7.30;;
49578;SDS011;35483;50.828;3.228;2024-02-21T01:36:31;12.45;;;6.55;;
49578;SDS011;35483;50.828;3.228;2024-02-21T01:38:56;13.52;;;6.93;;
49578;SDS011;35483;50.828;3.228;2024-02-21T01:41:22;13.38;;;6.35;;
49578;SDS011;35483;50.828;3.228;2024-02-21T01:43:48;12.13;;;6.40;;
49578;SDS011;35483;50.828;3.228;2024-02-21T01:46:13;12.52;;;6.82;;
49578;SDS011;35483;50.828;3.228;2024-02-21T01:48:39;10.15;;;6.88;;
49578;SDS011;35483;50.828;3.228;2024-02-21T01:51:05;11.13;;;5.97;;
49578;SDS011;35483;50.828;3.228;2024-02-21T01:53:37;12.73;;;7.15;;
49578;SDS011;35483;50.828;3.228;2024-02-21T01:56:08;10.18;;;6.75;;
49578;SDS011;35483;50.828;3.228;2024-02-21T01:58:36;12.77;;;7.10;;
49578;SDS011;35483;50.828;3.228;2024-02-21T02:01:05;13.90;;;6.68;;
49578;SDS011;35483;50.828;3.228;2024-02-21T02:03:32;17.63;;;7.35;;
49578;SDS011;35483;50.828;3.228;2024-02-21T02:05:58;13.57;;;6.95;;
49578;SDS011;35483;50.828;3.228;2024-02-21T02:08:25;14.15;;;7.10;;
49578;SDS011;35483;50.828;3.228;2024-02-21T02:10:53;16.13;;;6.88;;
49578;SDS011;35483;50.828;3.228;2024-02-21T02:13:21;12.20;;;7.05;;
49578;SDS011;35483;50.828;3.228;2024-02-21T02:15:47;9.40;;;5.93;;
49578;SDS011;35483;50.828;3.228;2024-02-21T02:18:14;11.95;;;6.88;;
49578;SDS011;35483;50.828;3.228;2024-02-21T02:20:43;14.82;;;7.22;;
49578;SDS011;35483;50.828;3.228;2024-02-21T02:23:18;9.73;;;6.60;;
49578;SDS011;35483;50.828;3.228;2024-02-21T02:25:44;10.05;;;6.68;;
49578;SDS011;35483;50.828;3.228;2024-02-21T02:28:16;12.77;;;6.43;;
49578;SDS011;35483;50.828;3.228;2024-02-21T02:30:43;14.45;;;7.50;;
49578;SDS011;35483;50.828;3.228;2024-02-21T02:35:37;9.95;;;6.10;;
49578;SDS011;35483;50.828;3.228;2024-02-21T02:38:04;9.52;;;6.00;;
49578;SDS011;35483;50.828;3.228;2024-02-21T02:40:30;12.93;;;7.22;;
49578;SDS011;35483;50.828;3.228;2024-02-21T02:45:27;11.80;;;6.25;;
49578;SDS011;35483;50.828;3.228;2024-02-21T02:47:55;9.40;;;6.18;;
49578;SDS011;35483;50.828;3.228;2024-02-21T02:50:23;11.40;;;6.50;;
49578;SDS011;35483;50.828;3.228;2024-02-21T02:52:52;11.15;;;6.22;;
49578;SDS011;35483;50.828;3.228;2024-02-21T02:55:18;10.77;;;6.15;;
49578;SDS011;35483;50.828;3.228;2024-02-21T02:57:45;10.65;;;6.25;;
49578;SDS011;35483;50.828;3.228;2024-02-21T03:00:11;7.20;;;5.50;;
49578;SDS011;35483;50.828;3.228;2024-02-21T03:02:38;9.40;;;6.38;;
49578;SDS011;35483;50.828;3.228;2024-02-21T03:08:00;8.57;;;6.17;;
49578;SDS011;35483;50.828;3.228;2024-02-21T03:10:26;10.70;;;5.80;;
49578;SDS011;35483;50.828;3.228;2024-02-21T03:12:51;12.57;;;6.75;;
49578;SDS011;35483;50.828;3.228;2024-02-21T03:15:18;11.27;;;6.35;;
49578;SDS011;35483;50.828;3.228;2024-02-21T03:20:13;8.48;;;5.75;;
49578;SDS011;35483;50.828;3.228;2024-02-21T03:22:38;8.68;;;5.95;;
49578;SDS011;35483;50.828;3.228;2024-02-21T03:25:06;13.77;;;6.45;;
49578;SDS011;35483;50.828;3.228;2024-02-21T03:27:33;12.32;;;6.30;;
49578;SDS011;35483;50.828;3.228;2024-02-21T03:30:02;11.45;;;6.07;;
49578;SDS011;35483;50.828;3.228;2024-02-21T03:32:30;11.60;;;5.70;;
49578;SDS011;35483;50.828;3.228;2024-02-21T03:34:56;9.27;;;6.95;;
49578;SDS011;35483;50.828;3.228;2024-02-21T03:37:23;10.13;;;6.20;;
49578;SDS011;35483;50.828;3.228;2024-02-21T03:39:50;9.93;;;5.68;;
49578;SDS011;35483;50.828;3.228;2024-02-21T03:42:17;10.10;;;5.95;;
49578;SDS011;35483;50.828;3.228;2024-02-21T03:44:46;13.10;;;6.40;;
49578;SDS011;35483;50.828;3.228;2024-02-21T03:49:46;11.20;;;6.40;;
49578;SDS011;35483;50.828;3.228;2024-02-21T03:52:13;9.93;;;6.97;;
49578;SDS011;35483;50.828;3.228;2024-02-21T03:54:40;12.05;;;6.40;;
49578;SDS011;35483;50.828;3.228;2024-02-21T03:57:09;9.82;;;6.90;;
49578;SDS011;35483;50.828;3.228;2024-02-21T03:59:34;11.23;;;6.40;;
49578;SDS011;35483;50.828;3.228;2024-02-21T04:02:01;11.48;;;6.95;;
49578;SDS011;35483;50.828;3.228;2024-02-21T04:04:30;9.82;;;6.90;;
49578;SDS011;35483;50.828;3.228;2024-02-21T04:06:55;9.40;;;5.93;;
49578;SDS011;35483;50.828;3.228;2024-02-21T04:09:22;12.10;;;6.70;;
49578;SDS011;35483;50.828;3.228;2024-02-21T04:11:50;12.90;;;6.38;;
49578;SDS011;35483;50.828;3.228;2024-02-21T04:14:15;9.93;;;6.55;;
49578;SDS011;35483;50.828;3.228;2024-02-21T04:16:41;9.95;;;6.40;;
49578;SDS011;35483;50.828;3.228;2024-02-21T04:19:09;12.20;;;6.85;;
49578;SDS011;35483;50.828;3.228;2024-02-21T04:21:38;8.70;;;6.50;;
49578;SDS011;35483;50.828;3.228;2024-02-21T04:24:05;8.07;;;7.07;;
49578;SDS011;35483;50.828;3.228;2024-02-21T04:26:31;11.82;;;7.00;;
49578;SDS011;35483;50.828;3.228;2024-02-21T04:28:57;8.82;;;6.47;;
49578;SDS011;35483;50.828;3.228;2024-02-21T04:31:23;10.73;;;6.43;;
49578;SDS011;35483;50.828;3.228;2024-02-21T04:33:50;11.93;;;6.75;;
49578;SDS011;35483;50.828;3.228;2024-02-21T04:36:17;12.85;;;7.15;;
49578;SDS011;35483;50.828;3.228;2024-02-21T04:38:46;10.63;;;6.88;;
49578;SDS011;35483;50.828;3.228;2024-02-21T04:41:12;10.80;;;7.00;;
49578;SDS011;35483;50.828;3.228;2024-02-21T04:43:37;10.13;;;7.07;;
49578;SDS011;35483;50.828;3.228;2024-02-21T04:46:04;10.55;;;6.95;;
49578;SDS011;35483;50.828;3.228;2024-02-21T04:48:33;10.93;;;6.50;;
49578;SDS011;35483;50.828;3.228;2024-02-21T04:51:00;11.73;;;7.05;;
49578;SDS011;35483;50.828;3.228;2024-02-21T04:53:28;11.10;;;6.72;;
49578;SDS011;35483;50.828;3.228;2024-02-21T04:55:56;13.65;;;6.63;;
49578;SDS011;35483;50.828;3.228;2024-02-21T04:58:25;10.70;;;6.80;;
49578;SDS011;35483;50.828;3.228;2024-02-21T05:00:51;11.07;;;7.10;;
49578;SDS011;35483;50.828;3.228;2024-02-21T05:03:17;9.13;;;6.50;;
49578;SDS011;35483;50.828;3.228;2024-02-21T05:05:43;10.27;;;6.32;;
49578;SDS011;35483;50.828;3.228;2024-02-21T05:08:10;10.70;;;6.75;;
49578;SDS011;35483;50.828;3.228;2024-02-21T05:10:40;9.65;;;6.47;;
49578;SDS011;35483;50.828;3.228;2024-02-21T05:13:06;14.80;;;6.78;;
49578;SDS011;35483;50.828;3.228;2024-02-21T05:15:32;9.90;;;6.43;;
49578;SDS011;35483;50.828;3.228;2024-02-21T05:17:57;10.70;;;6.65;;
49578;SDS011;35483;50.828;3.228;2024-02-21T05:20:25;10.77;;;6.55;;
49578;SDS011;35483;50.828;3.228;2024-02-21T05:22:52;6.97;;;5.70;;
49578;SDS011;35483;50.828;3.228;2024-02-21T05:25:19;10.98;;;6.45;;
49578;SDS011;35483;50.828;3.228;2024-02-21T05:27:46;8.35;;;6.28;;
49578;SDS011;35483;50.828;3.228;2024-02-21T05:30:13;8.07;;;6.13;;
49578;SDS011;35483;50.828;3.228;2024-02-21T05:32:39;7.15;;;6.10;;
49578;SDS011;35483;50.828;3.228;2024-02-21T05:35:05;9.75;;;5.93;;
49578;SDS011;35483;50.828;3.228;2024-02-21T05:40:02;8.07;;;6.18;;
49578;SDS011;35483;50.828;3.228;2024-02-21T05:42:29;10.25;;;6.25;;
49578;SDS011;35483;50.828;3.228;2024-02-21T05:44:55;9.90;;;6.05;;
49578;SDS011;35483;50.828;3.228;2024-02-21T05:47:22;11.98;;;6.53;;
49578;SDS011;35483;50.828;3.228;2024-02-21T05:49:48;9.60;;;6.10;;
49578;SDS011;35483;50.828;3.228;2024-02-21T05:52:20;9.02;;;6.43;;
49578;SDS011;35483;50.828;3.228;2024-02-21T05:54:47;7.72;;;6.28;;
49578;SDS011;35483;50.828;3.228;2024-02-21T05:57:16;8.98;;;6.10;;
49578;SDS011;35483;50.828;3.228;2024-02-21T05:59:47;7.78;;;5.90;;
49578;SDS011;35483;50.828;3.228;2024-02-21T06:04:42;8.38;;;6.13;;
49578;SDS011;35483;50.828;3.228;2024-02-21T06:07:10;9.38;;;6.20;;
49578;SDS011;35483;50.828;3.228;2024-02-21T06:09:36;10.88;;;6.65;;
49578;SDS011;35483;50.828;3.228;2024-02-21T06:12:02;8.48;;;6.53;;
49578;SDS011;35483;50.828;3.228;2024-02-21T06:16:58;10.30;;;6.70;;
49578;SDS011;35483;50.828;3.228;2024-02-21T06:21:52;8.57;;;6.10;;
49578;SDS011;35483;50.828;3.228;2024-02-21T06:24:19;9.73;;;6.60;;
49578;SDS011;35483;50.828;3.228;2024-02-21T06:26:46;9.43;;;6.43;;
49578;SDS011;35483;50.828;3.228;2024-02-21T06:29:13;9.02;;;6.57;;
49578;SDS011;35483;50.828;3.228;2024-02-21T06:31:39;12.18;;;6.82;;
49578;SDS011;35483;50.828;3.228;2024-02-21T06:34:06;7.55;;;6.38;;
49578;SDS011;35483;50.828;3.228;2024-02-21T06:36:35;7.40;;;6.03;;
49578;SDS011;35483;50.828;3.228;2024-02-21T06:39:02;7.30;;;6.60;;
49578;SDS011;35483;50.828;3.228;2024-02-21T06:41:32;10.32;;;7.25;;
49578;SDS011;35483;50.828;3.228;2024-02-21T06:44:00;9.18;;;7.28;;
49578;SDS011;35483;50.828;3.228;2024-02-21T06:46:27;9.15;;;6.10;;
49578;SDS011;35483;50.828;3.228;2024-02-21T06:48:54;7.97;;;6.13;;
49578;SDS011;35483;50.828;3.228;2024-02-21T06:51:22;8.82;;;6.20;;
49578;SDS011;35483;50.828;3.228;2024-02-21T06:53:50;8.23;;;6.82;;
49578;SDS011;35483;50.828;3.228;2024-02-21T06:56:17;9.35;;;6.82;;
49578;SDS011;35483;50.828;3.228;2024-02-21T06:58:43;10.05;;;6.32;;
49578;SDS011;35483;50.828;3.228;2024-02-21T07:01:09;9.43;;;6.63;;
49578;SDS011;35483;50.828;3.228;2024-02-21T07:06:05;9.75;;;7.03;;
49578;SDS011;35483;50.828;3.228;2024-02-21T07:08:31;10.88;;;7.25;;
49578;SDS011;35483;50.828;3.228;2024-02-21T07:10:59;11.02;;;7.70;;
49578;SDS011;35483;50.828;3.228;2024-02-21T07:13:27;9.85;;;7.35;;
49578;SDS011;35483;50.828;3.228;2024-02-21T07:15:55;11.85;;;7.35;;
49578;SDS011;35483;50.828;3.228;2024-02-21T07:20:54;10.88;;;7.97;;
49578;SDS011;35483;50.828;3.228;2024-02-21T07:23:21;12.95;;;7.32;;
49578;SDS011;35483;50.828;3.228;2024-02-21T07:25:48;11.10;;;7.55;;
49578;SDS011;35483;50.828;3.228;2024-02-21T07:28:15;11.13;;;7.18;;
49578;SDS011;35483;50.828;3.228;2024-02-21T07:30:45;10.85;;;7.68;;
49578;SDS011;35483;50.828;3.228;2024-02-21T07:33:12;8.98;;;6.93;;
49578;SDS011;35483;50.828;3.228;2024-02-21T07:35:40;11.18;;;7.30;;
49578;SDS011;35483;50.828;3.228;2024-02-21T07:40:40;12.20;;;10.20;;
49578;SDS011;35483;50.828;3.228;2024-02-21T07:45:35;12.45;;;8.55;;
49578;SDS011;35483;50.828;3.228;2024-02-21T07:50:30;13.07;;;8.15;;
49578;SDS011;35483;50.828;3.228;2024-02-21T07:52:57;12.75;;;8.68;;
49578;SDS011;35483;50.828;3.228;2024-02-21T07:55:23;9.10;;;7.95;;
49578;SDS011;35483;50.828;3.228;2024-02-21T07:57:49;12.25;;;8.65;;
49578;SDS011;35483;50.828;3.228;2024-02-21T08:00:16;14.85;;;9.77;;
49578;SDS011;35483;50.828;3.228;2024-02-21T08:02:49;13.32;;;10.82;;
49578;SDS011;35483;50.828;3.228;2024-02-21T08:05:14;13.05;;;10.85;;
49578;SDS011;35483;50.828;3.228;2024-02-21T08:07:40;15.07;;;10.27;;
49578;SDS011;35483;50.828;3.228;2024-02-21T08:10:06;13.20;;;10.05;;
49578;SDS011;35483;50.828;3.228;2024-02-21T08:12:33;11.88;;;9.65;;
49578;SDS011;35483;50.828;3.228;2024-02-21T08:14:59;15.48;;;10.57;;
49578;SDS011;35483;50.828;3.228;2024-02-21T08:17:26;14.35;;;10.25;;
49578;SDS011;35483;50.828;3.228;2024-02-21T08:19:52;12.55;;;9.70;;
49578;SDS011;35483;50.828;3.228;2024-02-21T08:22:19;12.50;;;10.02;;
49578;SDS011;35483;50.828;3.228;2024-02-21T08:24:45;14.77;;;9.73;;
49578;SDS011;35483;50.828;3.228;2024-02-21T08:27:11;12.00;;;9.27;;
49578;SDS011;35483;50.828;3.228;2024-02-21T08:29:40;11.52;;;9.73;;
49578;SDS011;35483;50.828;3.228;2024-02-21T08:32:06;13.70;;;9.75;;
49578;SDS011;35483;50.828;3.228;2024-02-21T08:37:03;12.27;;;9.70;;
49578;SDS011;35483;50.828;3.228;2024-02-21T08:39:30;13.57;;;9.40;;
49578;SDS011;35483;50.828;3.228;2024-02-21T08:41:57;17.13;;;10.80;;
49578;SDS011;35483;50.828;3.228;2024-02-21T08:44:27;14.93;;;10.13;;
49578;SDS011;35483;50.828;3.228;2024-02-21T08:46:53;14.32;;;10.13;;
49578;SDS011;35483;50.828;3.228;2024-02-21T08:49:20;10.95;;;9.02;;
49578;SDS011;35483;50.828;3.228;2024-02-21T08:51:47;13.02;;;9.07;;
49578;SDS011;35483;50.828;3.228;2024-02-21T08:54:17;12.32;;;8.93;;
49578;SDS011;35483;50.828;3.228;2024-02-21T08:56:44;13.73;;;9.43;;
49578;SDS011;35483;50.828;3.228;2024-02-21T08:59:11;17.05;;;12.60;;
49578;SDS011;35483;50.828;3.228;2024-02-21T09:01:41;18.48;;;11.10;;
49578;SDS011;35483;50.828;3.228;2024-02-21T09:04:10;11.02;;;8.02;;
49578;SDS011;35483;50.828;3.228;2024-02-21T09:06:36;14.52;;;9.25;;
49578;SDS011;35483;50.828;3.228;2024-02-21T09:09:04;12.27;;;8.50;;
49578;SDS011;35483;50.828;3.228;2024-02-21T09:11:31;13.68;;;8.50;;
49578;SDS011;35483;50.828;3.228;2024-02-21T09:14:03;9.23;;;8.05;;
49578;SDS011;35483;50.828;3.228;2024-02-21T09:16:30;12.02;;;8.65;;
49578;SDS011;35483;50.828;3.228;2024-02-21T09:18:57;11.88;;;8.25;;
49578;SDS011;35483;50.828;3.228;2024-02-21T09:21:24;12.65;;;8.70;;
49578;SDS011;35483;50.828;3.228;2024-02-21T09:23:56;9.27;;;8.27;;
49578;SDS011;35483;50.828;3.228;2024-02-21T09:26:27;10.88;;;8.27;;
49578;SDS011;35483;50.828;3.228;2024-02-21T09:28:53;11.10;;;8.38;;
49578;SDS011;35483;50.828;3.228;2024-02-21T09:31:21;12.27;;;8.35;;
49578;SDS011;35483;50.828;3.228;2024-02-21T09:33:48;14.98;;;8.63;;
49578;SDS011;35483;50.828;3.228;2024-02-21T09:36:13;11.98;;;8.00;;
49578;SDS011;35483;50.828;3.228;2024-02-21T09:38:40;10.98;;;8.70;;
49578;SDS011;35483;50.828;3.228;2024-02-21T09:41:14;11.77;;;7.72;;
49578;SDS011;35483;50.828;3.228;2024-02-21T09:43:45;9.18;;;6.75;;
49578;SDS011;35483;50.828;3.228;2024-02-21T09:46:18;12.40;;;7.63;;
49578;SDS011;35483;50.828;3.228;2024-02-21T09:51:27;10.90;;;7.30;;
49578;SDS011;35483;50.828;3.228;2024-02-21T09:54:00;13.57;;;8.07;;
49578;SDS011;35483;50.828;3.228;2024-02-21T09:56:30;9.73;;;7.57;;
49578;SDS011;35483;50.828;3.228;2024-02-21T09:58:56;12.82;;;7.32;;
49578;SDS011;35483;50.828;3.228;2024-02-21T10:01:24;10.43;;;7.03;;
49578;SDS011;35483;50.828;3.228;2024-02-21T10:03:50;9.75;;;7.15;;
49578;SDS011;35483;50.828;3.228;2024-02-21T10:06:16;13.43;;;7.18;;
49578;SDS011;35483;50.828;3.228;2024-02-21T10:08:42;9.80;;;7.28;;
49578;SDS011;35483;50.828;3.228;2024-02-21T10:11:21;9.77;;;7.20;;
49578;SDS011;35483;50.828;3.228;2024-02-21T10:13:50;9.95;;;6.93;;
49578;SDS011;35483;50.828;3.228;2024-02-21T10:16:17;11.75;;;7.53;;
49578;SDS011;35483;50.828;3.228;2024-02-21T10:18:44;7.53;;;6.03;;
49578;SDS011;35483;50.828;3.228;2024-02-21T10:21:10;10.95;;;7.20;;
49578;SDS011;35483;50.828;3.228;2024-02-21T10:23:42;8.93;;;6.82;;
49578;SDS011;35483;50.828;3.228;2024-02-21T10:26:10;10.40;;;7.28;;
49578;SDS011;35483;50.828;3.228;2024-02-21T10:28:39;9.00;;;7.13;;
49578;SDS011;35483;50.828;3.228;2024-02-21T10:31:10;10.32;;;7.07;;
49578;SDS011;35483;50.828;3.228;2024-02-21T10:33:38;10.05;;;7.53;;
49578;SDS011;35483;50.828;3.228;2024-02-21T10:36:10;10.18;;;7.03;;
49578;SDS011;35483;50.828;3.228;2024-02-21T10:38:38;8.50;;;7.25;;
49578;SDS011;35483;50.828;3.228;2024-02-21T10:41:07;7.93;;;7.13;;
49578;SDS011;35483;50.828;3.228;2024-02-21T10:43:43;7.53;;;6.68;;
49578;SDS011;35483;50.828;3.228;2024-02-21T10:46:20;6.88;;;6.15;;
49578;SDS011;35483;50.828;3.228;2024-02-21T10:48:52;9.68;;;6.38;;
49578;SDS011;35483;50.828;3.228;2024-02-21T10:51:33;7.97;;;6.45;;
49578;SDS011;35483;50.828;3.228;2024-02-21T10:56:42;8.88;;;5.30;;
49578;SDS011;35483;50.828;3.228;2024-02-21T11:01:38;7.07;;;5.72;;
49578;SDS011;35483;50.828;3.228;2024-02-21T11:04:10;7.32;;;6.53;;
49578;SDS011;35483;50.828;3.228;2024-02-21T11:06:41;12.63;;;8.45;;
49578;SDS011;35483;50.828;3.228;2024-02-21T11:09:10;11.20;;;8.20;;
49578;SDS011;35483;50.828;3.228;2024-02-21T11:14:39;7.55;;;6.07;;
49578;SDS011;35483;50.828;3.228;2024-02-21T11:17:03;10.23;;;8.93;;
49578;SDS011;35483;50.828;3.228;2024-02-21T11:19:39;7.05;;;5.75;;
49578;SDS011;35483;50.828;3.228;2024-02-21T11:24:45;6.45;;;5.53;;
49578;SDS011;35483;50.828;3.228;2024-02-21T11:27:16;8.48;;;6.25;;
49578;SDS011;35483;50.828;3.228;2024-02-21T11:29:55;7.10;;;6.18;;
49578;SDS011;35483;50.828;3.228;2024-02-21T11:32:22;7.45;;;5.97;;
49578;SDS011;35483;50.828;3.228;2024-02-21T11:35:01;6.35;;;5.47;;
49578;SDS011;35483;50.828;3.228;2024-02-21T11:37:33;6.57;;;5.10;;
49578;SDS011;35483;50.828;3.228;2024-02-21T11:40:03;9.68;;;6.93;;
49578;SDS011;35483;50.828;3.228;2024-02-21T11:42:34;6.50;;;5.90;;
49578;SDS011;35483;50.828;3.228;2024-02-21T11:45:03;6.78;;;5.72;;
49578;SDS011;35483;50.828;3.228;2024-02-21T11:47:32;6.90;;;6.20;;
49578;SDS011;35483;50.828;3.228;2024-02-21T11:49:58;5.75;;;5.15;;
49578;SDS011;35483;50.828;3.228;2024-02-21T11:52:26;7.78;;;5.60;;
49578;SDS011;35483;50.828;3.228;2024-02-21T11:54:52;5.90;;;5.05;;
49578;SDS011;35483;50.828;3.228;2024-02-21T11:57:20;8.18;;;5.63;;
49578;SDS011;35483;50.828;3.228;2024-02-21T11:59:46;6.15;;;5.00;;
49578;SDS011;35483;50.828;3.228;2024-02-21T12:04:43;5.80;;;5.20;;
49578;SDS011;35483;50.828;3.228;2024-02-21T12:07:10;5.05;;;4.43;;
49578;SDS011;35483;50.828;3.228;2024-02-21T12:09:36;5.85;;;4.82;;
49578;SDS011;35483;50.828;3.228;2024-02-21T12:12:03;5.30;;;4.43;;
49578;SDS011;35483;50.828;3.228;2024-02-21T12:14:33;8.38;;;4.30;;
49578;SDS011;35483;50.828;3.228;2024-02-21T12:17:00;5.63;;;3.92;;
49578;SDS011;35483;50.828;3.228;2024-02-21T12:19:32;4.70;;;3.70;;
49578;SDS011;35483;50.828;3.228;2024-02-21T12:22:02;4.80;;;4.30;;
49578;SDS011;35483;50.828;3.228;2024-02-21T12:27:00;10.85;;;3.97;;
49578;SDS011;35483;50.828;3.228;2024-02-21T12:29:28;5.30;;;3.70;;
49578;SDS011;35483;50.828;3.228;2024-02-21T12:31:58;6.18;;;4.70;;
49578;SDS011;35483;50.828;3.228;2024-02-21T12:36:56;4.45;;;4.05;;
49578;SDS011;35483;50.828;3.228;2024-02-21T12:39:27;6.65;;;4.43;;
49578;SDS011;35483;50.828;3.228;2024-02-21T12:41:55;5.97;;;4.82;;
49578;SDS011;35483;50.828;3.228;2024-02-21T12:44:23;5.60;;;4.90;;
49578;SDS011;35483;50.828;3.228;2024-02-21T12:46:50;7.32;;;4.57;;
49578;SDS011;35483;50.828;3.228;2024-02-21T12:49:19;7.28;;;4.90;;
49578;SDS011;35483;50.828;3.228;2024-02-21T12:51:47;6.25;;;5.00;;
49578;SDS011;35483;50.828;3.228;2024-02-21T12:54:15;5.18;;;4.15;;
49578;SDS011;35483;50.828;3.228;2024-02-21T12:56:41;5.85;;;4.60;;
49578;SDS011;35483;50.828;3.228;2024-02-21T13:01:37;5.75;;;4.80;;
49578;SDS011;35483;50.828;3.228;2024-02-21T13:04:02;6.72;;;4.95;;
49578;SDS011;35483;50.828;3.228;2024-02-21T13:06:28;6.63;;;5.30;;
49578;SDS011;35483;50.828;3.228;2024-02-21T13:08:56;5.38;;;4.88;;
49578;SDS011;35483;50.828;3.228;2024-02-21T13:13:54;5.32;;;4.80;;
49578;SDS011;35483;50.828;3.228;2024-02-21T13:16:21;6.18;;;4.60;;
49578;SDS011;35483;50.828;3.228;2024-02-21T13:18:48;7.20;;;5.28;;
49578;SDS011;35483;50.828;3.228;2024-02-21T13:21:14;6.30;;;4.75;;
49578;SDS011;35483;50.828;3.228;2024-02-21T13:23:40;5.80;;;4.82;;
49578;SDS011;35483;50.828;3.228;2024-02-21T13:26:06;7.57;;;5.20;;
49578;SDS011;35483;50.828;3.228;2024-02-21T13:28:32;9.75;;;6.10;;
49578;SDS011;35483;50.828;3.228;2024-02-21T13:30:58;5.85;;;5.05;;
49578;SDS011;35483;50.828;3.228;2024-02-21T13:33:27;7.00;;;5.05;;
49578;SDS011;35483;50.828;3.228;2024-02-21T13:38:24;10.68;;;9.57;;
49578;SDS011;35483;50.828;3.228;2024-02-21T13:40:52;9.43;;;7.93;;
49578;SDS011;35483;50.828;3.228;2024-02-21T13:43:18;7.25;;;5.45;;
49578;SDS011;35483;50.828;3.228;2024-02-21T13:45:55;6.20;;;5.60;;
49578;SDS011;35483;50.828;3.228;2024-02-21T13:48:32;8.98;;;5.40;;
49578;SDS011;35483;50.828;3.228;2024-02-21T13:51:00;6.55;;;5.13;;
49578;SDS011;35483;50.828;3.228;2024-02-21T13:53:30;8.35;;;5.28;;
49578;SDS011;35483;50.828;3.228;2024-02-21T13:55:58;6.88;;;5.13;;
49578;SDS011;35483;50.828;3.228;2024-02-21T13:58:23;8.18;;;4.78;;
49578;SDS011;35483;50.828;3.228;2024-02-21T14:00:52;5.20;;;4.65;;
49578;SDS011;35483;50.828;3.228;2024-02-21T14:03:18;6.45;;;4.88;;
49578;SDS011;35483;50.828;3.228;2024-02-21T14:05:45;6.43;;;5.00;;
49578;SDS011;35483;50.828;3.228;2024-02-21T14:08:13;5.88;;;4.75;;
49578;SDS011;35483;50.828;3.228;2024-02-21T14:10:42;5.75;;;4.10;;
49578;SDS011;35483;50.828;3.228;2024-02-21T14:13:14;6.53;;;5.25;;
49578;SDS011;35483;50.828;3.228;2024-02-21T14:15:44;6.93;;;5.07;;
49578;SDS011;35483;50.828;3.228;2024-02-21T14:18:18;8.55;;;6.35;;
49578;SDS011;35483;50.828;3.228;2024-02-21T14:20:45;8.55;;;5.50;;
49578;SDS011;35483;50.828;3.228;2024-02-21T14:23:15;7.00;;;5.70;;
49578;SDS011;35483;50.828;3.228;2024-02-21T14:30:39;4.90;;;4.40;;
49578;SDS011;35483;50.828;3.228;2024-02-21T14:33:07;6.13;;;5.53;;
49578;SDS011;35483;50.828;3.228;2024-02-21T14:38:02;5.88;;;5.10;;
49578;SDS011;35483;50.828;3.228;2024-02-21T14:42:59;8.65;;;6.35;;
49578;SDS011;35483;50.828;3.228;2024-02-21T14:47:54;7.72;;;6.93;;
49578;SDS011;35483;50.828;3.228;2024-02-21T14:50:20;8.05;;;7.25;;
49578;SDS011;35483;50.828;3.228;2024-02-21T14:52:49;10.48;;;8.45;;
49578;SDS011;35483;50.828;3.228;2024-02-21T14:55:17;13.00;;;9.05;;
49578;SDS011;35483;50.828;3.228;2024-02-21T14:57:46;7.00;;;5.93;;
49578;SDS011;35483;50.828;3.228;2024-02-21T15:00:13;8.60;;;5.50;;
49578;SDS011;35483;50.828;3.228;2024-02-21T15:02:40;6.85;;;6.15;;
49578;SDS011;35483;50.828;3.228;2024-02-21T15:05:08;8.07;;;6.20;;
49578;SDS011;35483;50.828;3.228;2024-02-21T15:10:03;7.63;;;6.70;;
49578;SDS011;35483;50.828;3.228;2024-02-21T15:15:06;10.80;;;8.25;;
49578;SDS011;35483;50.828;3.228;2024-02-21T15:17:33;11.63;;;7.55;;
49578;SDS011;35483;50.828;3.228;2024-02-21T15:20:00;8.80;;;7.55;;
49578;SDS011;35483;50.828;3.228;2024-02-21T15:22:29;7.25;;;6.55;;
49578;SDS011;35483;50.828;3.228;2024-02-21T15:24:56;8.57;;;6.82;;
49578;SDS011;35483;50.828;3.228;2024-02-21T15:27:23;7.13;;;6.28;;
49578;SDS011;35483;50.828;3.228;2024-02-21T15:29:53;7.43;;;6.35;;
49578;SDS011;35483;50.828;3.228;2024-02-21T15:32:20;8.60;;;6.75;;
49578;SDS011;35483;50.828;3.228;2024-02-21T15:34:48;7.15;;;5.80;;
49578;SDS011;35483;50.828;3.228;2024-02-21T15:39:45;9.80;;;6.30;;
49578;SDS011;35483;50.828;3.228;2024-02-21T15:42:11;7.32;;;5.90;;
49578;SDS011;35483;50.828;3.228;2024-02-21T15:44:39;6.78;;;5.45;;
49578;SDS011;35483;50.828;3.228;2024-02-21T15:47:07;7.28;;;5.50;;
49578;SDS011;35483;50.828;3.228;2024-02-21T15:49:35;7.90;;;6.03;;
49578;SDS011;35483;50.828;3.228;2024-02-21T15:54:33;7.85;;;5.30;;
49578;SDS011;35483;50.828;3.228;2024-02-21T15:57:02;7.65;;;4.82;;
49578;SDS011;35483;50.828;3.228;2024-02-21T15:59:34;6.80;;;4.88;;
49578;SDS011;35483;50.828;3.228;2024-02-21T16:02:10;6.78;;;4.88;;
49578;SDS011;35483;50.828;3.228;2024-02-21T16:07:09;5.25;;;4.18;;
49578;SDS011;35483;50.828;3.228;2024-02-21T16:09:37;5.63;;;4.10;;
49578;SDS011;35483;50.828;3.228;2024-02-21T16:14:41;5.45;;;3.78;;
49578;SDS011;35483;50.828;3.228;2024-02-21T16:17:07;5.65;;;4.20;;
49578;SDS011;35483;50.828;3.228;2024-02-21T16:19:33;4.32;;;3.72;;
49578;SDS011;35483;50.828;3.228;2024-02-21T16:22:02;4.60;;;3.50;;
49578;SDS011;35483;50.828;3.228;2024-02-21T16:34:33;4.72;;;3.78;;